sensor_id;sensor_type;location;lat;lon;timestamp;P1;durP1;ratioP1;P2;durP2;ratioP2
22606;SDS011;11470;20.968;105.834;2024-01-11T00:02:22;18.52;;;11.48;;
22606;SDS011;11470;20.968;105.834;2024-01-11T00:07:27;20.35;;;12.32;;
22606;SDS011;11470;20.968;105.834;2024-01-11T00:12:33;16.15;;;11.20;;
22606;SDS011;11470;20.968;105.834;2024-01-11T00:17:38;17.07;;;9.33;;
22606;SDS011;11470;20.968;105.834;2024-01-11T00:22:43;16.43;;;10.67;;
22606;SDS011;11470;20.968;105.834;2024-01-11T00:27:49;24.65;;;15.45;;
22606;SDS011;11470;20.968;105.834;2024-01-11T00:32:54;24.67;;;15.30;;
22606;SDS011;11470;20.968;105.834;2024-01-11T00:37:59;36.33;;;21.07;;
22606;SDS011;11470;20.968;105.834;2024-01-11T00:43:09;18.92;;;12.30;;
22606;SDS011;11470;20.968;105.834;2024-01-11T00:48:15;30.25;;;18.83;;
22606;SDS011;11470;20.968;105.834;2024-01-11T00:53:20;26.73;;;16.13;;
22606;SDS011;11470;20.968;105.834;2024-01-11T00:58:26;36.80;;;23.03;;
22606;SDS011;11470;20.968;105.834;2024-01-11T01:03:31;29.25;;;19.15;;
22606;SDS011;11470;20.968;105.834;2024-01-11T01:08:36;25.63;;;16.30;;
22606;SDS011;11470;20.968;105.834;2024-01-11T01:13:41;30.27;;;18.50;;
22606;SDS011;11470;20.968;105.834;2024-01-11T01:18:47;32.10;;;19.45;;
22606;SDS011;11470;20.968;105.834;2024-01-11T01:23:52;27.10;;;19.20;;
22606;SDS011;11470;20.968;105.834;2024-01-11T01:28:57;32.95;;;23.17;;
22606;SDS011;11470;20.968;105.834;2024-01-11T01:34:02;22.73;;;12.07;;
22606;SDS011;11470;20.968;105.834;2024-01-11T01:39:09;26.20;;;19.48;;
22606;SDS011;11470;20.968;105.834;2024-01-11T01:44:14;26.93;;;17.13;;
22606;SDS011;11470;20.968;105.834;2024-01-11T01:49:18;32.50;;;20.83;;
22606;SDS011;11470;20.968;105.834;2024-01-11T01:54:25;32.22;;;21.38;;
22606;SDS011;11470;20.968;105.834;2024-01-11T01:59:31;43.27;;;28.93;;
22606;SDS011;11470;20.968;105.834;2024-01-11T02:04:38;37.00;;;26.77;;
22606;SDS011;11470;20.968;105.834;2024-01-11T02:09:43;34.73;;;23.00;;
22606;SDS011;11470;20.968;105.834;2024-01-11T02:14:49;31.63;;;20.97;;
22606;SDS011;11470;20.968;105.834;2024-01-11T02:19:54;41.17;;;26.20;;
22606;SDS011;11470;20.968;105.834;2024-01-11T02:24:59;35.13;;;21.87;;
22606;SDS011;11470;20.968;105.834;2024-01-11T02:30:06;36.47;;;23.27;;
22606;SDS011;11470;20.968;105.834;2024-01-11T02:35:12;31.20;;;21.23;;
22606;SDS011;11470;20.968;105.834;2024-01-11T02:40:19;47.45;;;31.48;;
22606;SDS011;11470;20.968;105.834;2024-01-11T02:45:24;32.50;;;22.67;;
22606;SDS011;11470;20.968;105.834;2024-01-11T02:50:31;64.68;;;38.67;;
22606;SDS011;11470;20.968;105.834;2024-01-11T02:55:36;39.03;;;24.57;;
22606;SDS011;11470;20.968;105.834;2024-01-11T03:00:41;33.15;;;22.02;;
22606;SDS011;11470;20.968;105.834;2024-01-11T03:05:46;35.40;;;24.02;;
22606;SDS011;11470;20.968;105.834;2024-01-11T03:10:52;40.72;;;25.48;;
22606;SDS011;11470;20.968;105.834;2024-01-11T03:15:57;32.50;;;21.58;;
22606;SDS011;11470;20.968;105.834;2024-01-11T03:21:02;35.57;;;20.43;;
22606;SDS011;11470;20.968;105.834;2024-01-11T03:26:14;41.40;;;28.93;;
22606;SDS011;11470;20.968;105.834;2024-01-11T03:31:22;38.42;;;25.55;;
22606;SDS011;11470;20.968;105.834;2024-01-11T03:36:27;29.85;;;17.90;;
22606;SDS011;11470;20.968;105.834;2024-01-11T03:41:32;30.42;;;15.82;;
22606;SDS011;11470;20.968;105.834;2024-01-11T03:46:37;40.72;;;23.15;;
22606;SDS011;11470;20.968;105.834;2024-01-11T03:51:42;37.25;;;23.52;;
22606;SDS011;11470;20.968;105.834;2024-01-11T03:56:47;31.33;;;20.27;;
22606;SDS011;11470;20.968;105.834;2024-01-11T04:01:53;36.97;;;24.27;;
22606;SDS011;11470;20.968;105.834;2024-01-11T04:06:59;37.65;;;21.08;;
22606;SDS011;11470;20.968;105.834;2024-01-11T04:12:04;39.60;;;25.75;;
22606;SDS011;11470;20.968;105.834;2024-01-11T04:17:10;33.60;;;25.30;;
22606;SDS011;11470;20.968;105.834;2024-01-11T04:22:15;31.17;;;18.20;;
22606;SDS011;11470;20.968;105.834;2024-01-11T04:27:20;34.80;;;22.85;;
22606;SDS011;11470;20.968;105.834;2024-01-11T04:32:25;24.65;;;10.43;;
22606;SDS011;11470;20.968;105.834;2024-01-11T04:37:30;22.80;;;12.98;;
22606;SDS011;11470;20.968;105.834;2024-01-11T04:42:35;38.08;;;22.63;;
22606;SDS011;11470;20.968;105.834;2024-01-11T04:47:40;35.78;;;21.75;;
22606;SDS011;11470;20.968;105.834;2024-01-11T04:52:46;31.60;;;17.40;;
22606;SDS011;11470;20.968;105.834;2024-01-11T04:57:51;28.98;;;17.15;;
22606;SDS011;11470;20.968;105.834;2024-01-11T05:02:55;29.60;;;19.50;;
22606;SDS011;11470;20.968;105.834;2024-01-11T05:08:00;33.30;;;20.23;;
22606;SDS011;11470;20.968;105.834;2024-01-11T05:13:05;32.85;;;18.40;;
22606;SDS011;11470;20.968;105.834;2024-01-11T05:18:13;33.65;;;20.52;;
22606;SDS011;11470;20.968;105.834;2024-01-11T05:23:18;38.13;;;19.20;;
22606;SDS011;11470;20.968;105.834;2024-01-11T05:28:23;28.08;;;16.80;;
22606;SDS011;11470;20.968;105.834;2024-01-11T05:33:28;26.98;;;15.35;;
22606;SDS011;11470;20.968;105.834;2024-01-11T05:38:35;24.33;;;15.00;;
22606;SDS011;11470;20.968;105.834;2024-01-11T05:43:42;23.77;;;14.75;;
22606;SDS011;11470;20.968;105.834;2024-01-11T05:48:47;20.37;;;14.13;;
22606;SDS011;11470;20.968;105.834;2024-01-11T05:53:53;25.43;;;14.60;;
22606;SDS011;11470;20.968;105.834;2024-01-11T05:58:59;20.63;;;13.60;;
22606;SDS011;11470;20.968;105.834;2024-01-11T06:04:04;26.17;;;15.27;;
22606;SDS011;11470;20.968;105.834;2024-01-11T06:09:09;16.07;;;9.07;;
22606;SDS011;11470;20.968;105.834;2024-01-11T06:14:14;22.25;;;13.85;;
22606;SDS011;11470;20.968;105.834;2024-01-11T06:19:24;18.77;;;12.43;;
22606;SDS011;11470;20.968;105.834;2024-01-11T06:24:29;18.75;;;12.70;;
22606;SDS011;11470;20.968;105.834;2024-01-11T06:29:36;14.63;;;10.90;;
22606;SDS011;11470;20.968;105.834;2024-01-11T06:34:44;18.33;;;12.25;;
22606;SDS011;11470;20.968;105.834;2024-01-11T06:39:51;9.02;;;6.30;;
22606;SDS011;11470;20.968;105.834;2024-01-11T06:44:56;15.20;;;9.52;;
22606;SDS011;11470;20.968;105.834;2024-01-11T06:50:03;16.65;;;9.95;;
22606;SDS011;11470;20.968;105.834;2024-01-11T06:55:09;12.70;;;7.83;;
22606;SDS011;11470;20.968;105.834;2024-01-11T07:00:15;13.50;;;8.95;;
22606;SDS011;11470;20.968;105.834;2024-01-11T07:05:20;11.33;;;8.33;;
22606;SDS011;11470;20.968;105.834;2024-01-11T07:10:26;12.02;;;7.85;;
22606;SDS011;11470;20.968;105.834;2024-01-11T07:15:31;13.65;;;9.73;;
22606;SDS011;11470;20.968;105.834;2024-01-11T07:20:36;8.75;;;7.30;;
22606;SDS011;11470;20.968;105.834;2024-01-11T07:25:42;19.67;;;15.93;;
22606;SDS011;11470;20.968;105.834;2024-01-11T07:30:47;12.50;;;9.73;;
22606;SDS011;11470;20.968;105.834;2024-01-11T07:35:52;15.27;;;9.02;;
22606;SDS011;11470;20.968;105.834;2024-01-11T07:40:59;11.85;;;8.60;;
22606;SDS011;11470;20.968;105.834;2024-01-11T07:46:05;13.10;;;10.70;;
22606;SDS011;11470;20.968;105.834;2024-01-11T07:56:16;11.63;;;8.75;;
22606;SDS011;11470;20.968;105.834;2024-01-11T08:01:21;11.43;;;9.55;;
22606;SDS011;11470;20.968;105.834;2024-01-11T08:06:26;13.60;;;10.68;;
22606;SDS011;11470;20.968;105.834;2024-01-11T08:11:31;15.80;;;10.88;;
22606;SDS011;11470;20.968;105.834;2024-01-11T08:16:39;11.45;;;8.40;;
22606;SDS011;11470;20.968;105.834;2024-01-11T08:21:44;14.23;;;11.35;;
22606;SDS011;11470;20.968;105.834;2024-01-11T08:26:49;18.00;;;13.80;;
22606;SDS011;11470;20.968;105.834;2024-01-11T08:31:54;17.65;;;13.10;;
22606;SDS011;11470;20.968;105.834;2024-01-11T08:37:07;13.95;;;9.40;;
22606;SDS011;11470;20.968;105.834;2024-01-11T08:42:16;11.27;;;8.13;;
22606;SDS011;11470;20.968;105.834;2024-01-11T08:47:30;12.80;;;10.15;;
22606;SDS011;11470;20.968;105.834;2024-01-11T08:52:36;18.60;;;14.20;;
22606;SDS011;11470;20.968;105.834;2024-01-11T08:57:42;14.93;;;10.63;;
22606;SDS011;11470;20.968;105.834;2024-01-11T09:02:47;13.23;;;10.77;;
22606;SDS011;11470;20.968;105.834;2024-01-11T09:07:52;13.38;;;11.00;;
22606;SDS011;11470;20.968;105.834;2024-01-11T09:12:57;9.20;;;7.20;;
22606;SDS011;11470;20.968;105.834;2024-01-11T09:18:02;12.40;;;9.55;;
22606;SDS011;11470;20.968;105.834;2024-01-11T09:23:08;12.07;;;10.23;;
22606;SDS011;11470;20.968;105.834;2024-01-11T09:28:13;11.43;;;9.53;;
22606;SDS011;11470;20.968;105.834;2024-01-11T09:33:18;11.82;;;8.07;;
22606;SDS011;11470;20.968;105.834;2024-01-11T09:38:25;16.20;;;12.70;;
22606;SDS011;11470;20.968;105.834;2024-01-11T09:43:30;13.95;;;11.50;;
22606;SDS011;11470;20.968;105.834;2024-01-11T09:48:38;14.13;;;12.07;;
22606;SDS011;11470;20.968;105.834;2024-01-11T09:53:44;14.65;;;11.30;;
22606;SDS011;11470;20.968;105.834;2024-01-11T10:03:55;15.52;;;10.70;;
22606;SDS011;11470;20.968;105.834;2024-01-11T10:09:00;11.00;;;9.23;;
22606;SDS011;11470;20.968;105.834;2024-01-11T10:14:06;12.93;;;11.10;;
22606;SDS011;11470;20.968;105.834;2024-01-11T10:19:12;13.57;;;10.60;;
22606;SDS011;11470;20.968;105.834;2024-01-11T10:24:20;14.50;;;10.65;;
22606;SDS011;11470;20.968;105.834;2024-01-11T10:29:35;16.58;;;10.65;;
22606;SDS011;11470;20.968;105.834;2024-01-11T10:34:40;13.90;;;8.88;;
22606;SDS011;11470;20.968;105.834;2024-01-11T10:39:45;16.92;;;11.20;;
22606;SDS011;11470;20.968;105.834;2024-01-11T10:44:54;8.32;;;6.28;;
22606;SDS011;11470;20.968;105.834;2024-01-11T10:50:02;12.15;;;7.78;;
22606;SDS011;11470;20.968;105.834;2024-01-11T10:55:12;11.18;;;7.68;;
22606;SDS011;11470;20.968;105.834;2024-01-11T11:00:17;13.40;;;9.32;;
22606;SDS011;11470;20.968;105.834;2024-01-11T11:05:23;9.80;;;6.65;;
22606;SDS011;11470;20.968;105.834;2024-01-11T11:15:35;15.00;;;6.22;;
22606;SDS011;11470;20.968;105.834;2024-01-11T11:20:41;9.53;;;7.50;;
22606;SDS011;11470;20.968;105.834;2024-01-11T11:25:48;10.63;;;8.05;;
22606;SDS011;11470;20.968;105.834;2024-01-11T11:30:53;13.60;;;9.63;;
22606;SDS011;11470;20.968;105.834;2024-01-11T11:36:01;15.13;;;8.73;;
22606;SDS011;11470;20.968;105.834;2024-01-11T11:41:08;12.60;;;9.82;;
22606;SDS011;11470;20.968;105.834;2024-01-11T11:46:13;9.77;;;7.88;;
22606;SDS011;11470;20.968;105.834;2024-01-11T11:51:19;12.25;;;8.18;;
22606;SDS011;11470;20.968;105.834;2024-01-11T11:56:28;12.02;;;8.80;;
22606;SDS011;11470;20.968;105.834;2024-01-11T12:01:34;15.95;;;10.43;;
22606;SDS011;11470;20.968;105.834;2024-01-11T12:06:41;10.63;;;6.72;;
22606;SDS011;11470;20.968;105.834;2024-01-11T12:11:46;12.25;;;8.00;;
22606;SDS011;11470;20.968;105.834;2024-01-11T12:17:04;13.60;;;8.75;;
22606;SDS011;11470;20.968;105.834;2024-01-11T12:22:11;15.63;;;12.95;;
22606;SDS011;11470;20.968;105.834;2024-01-11T12:27:16;13.07;;;10.45;;
22606;SDS011;11470;20.968;105.834;2024-01-11T12:32:22;13.70;;;9.55;;
22606;SDS011;11470;20.968;105.834;2024-01-11T12:37:30;15.65;;;10.10;;
22606;SDS011;11470;20.968;105.834;2024-01-11T12:42:35;16.08;;;10.43;;
22606;SDS011;11470;20.968;105.834;2024-01-11T12:47:40;13.60;;;10.90;;
22606;SDS011;11470;20.968;105.834;2024-01-11T12:52:45;21.42;;;17.92;;
22606;SDS011;11470;20.968;105.834;2024-01-11T12:58:02;22.35;;;17.10;;
22606;SDS011;11470;20.968;105.834;2024-01-11T13:03:14;18.83;;;13.40;;
22606;SDS011;11470;20.968;105.834;2024-01-11T13:08:19;15.77;;;12.88;;
22606;SDS011;11470;20.968;105.834;2024-01-11T13:13:24;13.70;;;11.43;;
22606;SDS011;11470;20.968;105.834;2024-01-11T13:18:32;12.48;;;8.35;;
22606;SDS011;11470;20.968;105.834;2024-01-11T13:23:37;18.20;;;13.23;;
22606;SDS011;11470;20.968;105.834;2024-01-11T13:28:43;23.42;;;16.83;;
22606;SDS011;11470;20.968;105.834;2024-01-11T13:33:48;17.35;;;13.63;;
22606;SDS011;11470;20.968;105.834;2024-01-11T13:38:53;22.05;;;17.02;;
22606;SDS011;11470;20.968;105.834;2024-01-11T13:43:59;11.57;;;9.27;;
22606;SDS011;11470;20.968;105.834;2024-01-11T13:49:05;15.57;;;11.20;;
22606;SDS011;11470;20.968;105.834;2024-01-11T13:54:10;19.20;;;13.47;;
22606;SDS011;11470;20.968;105.834;2024-01-11T13:59:16;15.88;;;11.63;;
22606;SDS011;11470;20.968;105.834;2024-01-11T14:04:21;16.55;;;12.18;;
22606;SDS011;11470;20.968;105.834;2024-01-11T14:09:26;14.50;;;9.70;;
22606;SDS011;11470;20.968;105.834;2024-01-11T14:14:31;19.67;;;12.52;;
22606;SDS011;11470;20.968;105.834;2024-01-11T14:19:37;14.73;;;10.68;;
22606;SDS011;11470;20.968;105.834;2024-01-11T14:24:44;17.17;;;12.83;;
22606;SDS011;11470;20.968;105.834;2024-01-11T14:29:50;11.75;;;8.38;;
22606;SDS011;11470;20.968;105.834;2024-01-11T14:34:55;13.50;;;9.83;;
22606;SDS011;11470;20.968;105.834;2024-01-11T14:40:00;17.63;;;13.65;;
22606;SDS011;11470;20.968;105.834;2024-01-11T14:45:06;18.37;;;12.10;;
22606;SDS011;11470;20.968;105.834;2024-01-11T14:50:16;17.88;;;12.95;;
22606;SDS011;11470;20.968;105.834;2024-01-11T14:55:21;9.80;;;7.18;;
22606;SDS011;11470;20.968;105.834;2024-01-11T15:00:26;14.13;;;8.30;;
22606;SDS011;11470;20.968;105.834;2024-01-11T15:05:31;20.35;;;11.93;;
22606;SDS011;11470;20.968;105.834;2024-01-11T15:10:36;20.38;;;12.18;;
22606;SDS011;11470;20.968;105.834;2024-01-11T15:15:42;18.43;;;13.00;;
22606;SDS011;11470;20.968;105.834;2024-01-11T15:20:47;18.60;;;12.63;;
22606;SDS011;11470;20.968;105.834;2024-01-11T15:25:52;18.15;;;13.85;;
22606;SDS011;11470;20.968;105.834;2024-01-11T15:31:02;16.58;;;12.10;;
22606;SDS011;11470;20.968;105.834;2024-01-11T15:36:07;17.63;;;13.93;;
22606;SDS011;11470;20.968;105.834;2024-01-11T15:41:13;17.33;;;12.00;;
22606;SDS011;11470;20.968;105.834;2024-01-11T15:46:18;14.23;;;10.93;;
22606;SDS011;11470;20.968;105.834;2024-01-11T15:51:23;20.85;;;12.00;;
22606;SDS011;11470;20.968;105.834;2024-01-11T15:56:29;16.53;;;11.67;;
22606;SDS011;11470;20.968;105.834;2024-01-11T16:01:34;14.00;;;11.00;;
22606;SDS011;11470;20.968;105.834;2024-01-11T16:06:57;16.25;;;12.55;;
22606;SDS011;11470;20.968;105.834;2024-01-11T16:12:05;18.27;;;14.15;;
22606;SDS011;11470;20.968;105.834;2024-01-11T16:17:10;13.35;;;10.85;;
22606;SDS011;11470;20.968;105.834;2024-01-11T16:22:15;16.87;;;12.13;;
22606;SDS011;11470;20.968;105.834;2024-01-11T16:27:24;18.15;;;15.18;;
22606;SDS011;11470;20.968;105.834;2024-01-11T16:32:29;12.63;;;8.40;;
22606;SDS011;11470;20.968;105.834;2024-01-11T16:37:34;15.63;;;11.40;;
22606;SDS011;11470;20.968;105.834;2024-01-11T16:42:39;14.25;;;10.48;;
22606;SDS011;11470;20.968;105.834;2024-01-11T16:47:45;16.13;;;12.00;;
22606;SDS011;11470;20.968;105.834;2024-01-11T16:52:50;16.87;;;11.33;;
22606;SDS011;11470;20.968;105.834;2024-01-11T16:57:55;12.13;;;8.93;;
22606;SDS011;11470;20.968;105.834;2024-01-11T17:03:05;14.13;;;10.32;;
22606;SDS011;11470;20.968;105.834;2024-01-11T17:08:11;14.20;;;10.83;;
22606;SDS011;11470;20.968;105.834;2024-01-11T17:13:16;13.32;;;9.65;;
22606;SDS011;11470;20.968;105.834;2024-01-11T17:18:22;14.00;;;10.80;;
22606;SDS011;11470;20.968;105.834;2024-01-11T17:23:27;13.35;;;9.93;;
22606;SDS011;11470;20.968;105.834;2024-01-11T17:28:32;16.83;;;11.55;;
22606;SDS011;11470;20.968;105.834;2024-01-11T17:33:38;17.37;;;12.93;;
22606;SDS011;11470;20.968;105.834;2024-01-11T17:38:46;18.63;;;14.13;;
22606;SDS011;11470;20.968;105.834;2024-01-11T17:43:51;18.08;;;13.20;;
22606;SDS011;11470;20.968;105.834;2024-01-11T17:48:57;23.73;;;16.03;;
22606;SDS011;11470;20.968;105.834;2024-01-11T17:54:02;16.00;;;11.67;;
22606;SDS011;11470;20.968;105.834;2024-01-11T17:59:08;17.77;;;13.40;;
22606;SDS011;11470;20.968;105.834;2024-01-11T18:04:13;15.17;;;11.00;;
22606;SDS011;11470;20.968;105.834;2024-01-11T18:09:19;17.30;;;12.67;;
22606;SDS011;11470;20.968;105.834;2024-01-11T18:14:25;14.68;;;9.82;;
22606;SDS011;11470;20.968;105.834;2024-01-11T18:19:30;15.10;;;10.70;;
22606;SDS011;11470;20.968;105.834;2024-01-11T18:24:36;14.77;;;10.20;;
22606;SDS011;11470;20.968;105.834;2024-01-11T18:29:41;16.55;;;11.38;;
22606;SDS011;11470;20.968;105.834;2024-01-11T18:34:47;12.90;;;8.57;;
22606;SDS011;11470;20.968;105.834;2024-01-11T18:39:52;15.20;;;9.90;;
22606;SDS011;11470;20.968;105.834;2024-01-11T18:44:57;15.40;;;9.70;;
22606;SDS011;11470;20.968;105.834;2024-01-11T18:50:02;15.18;;;9.93;;
22606;SDS011;11470;20.968;105.834;2024-01-11T18:55:08;13.33;;;7.70;;
22606;SDS011;11470;20.968;105.834;2024-01-11T19:00:18;15.43;;;11.80;;
22606;SDS011;11470;20.968;105.834;2024-01-11T19:05:23;18.67;;;10.38;;
22606;SDS011;11470;20.968;105.834;2024-01-11T19:10:29;19.95;;;13.95;;
22606;SDS011;11470;20.968;105.834;2024-01-11T19:15:34;20.15;;;14.30;;
22606;SDS011;11470;20.968;105.834;2024-01-11T19:20:39;20.57;;;14.87;;
22606;SDS011;11470;20.968;105.834;2024-01-11T19:25:44;20.17;;;14.32;;
22606;SDS011;11470;20.968;105.834;2024-01-11T19:30:49;18.80;;;12.77;;
22606;SDS011;11470;20.968;105.834;2024-01-11T19:35:55;16.88;;;11.52;;
22606;SDS011;11470;20.968;105.834;2024-01-11T19:41:01;17.00;;;11.27;;
22606;SDS011;11470;20.968;105.834;2024-01-11T19:46:06;13.40;;;9.30;;
22606;SDS011;11470;20.968;105.834;2024-01-11T19:51:12;15.23;;;10.90;;
22606;SDS011;11470;20.968;105.834;2024-01-11T19:56:17;16.42;;;8.05;;
22606;SDS011;11470;20.968;105.834;2024-01-11T20:01:24;17.58;;;11.40;;
22606;SDS011;11470;20.968;105.834;2024-01-11T20:06:28;12.68;;;8.68;;
22606;SDS011;11470;20.968;105.834;2024-01-11T20:11:33;16.92;;;11.38;;
22606;SDS011;11470;20.968;105.834;2024-01-11T20:16:38;14.00;;;8.38;;
22606;SDS011;11470;20.968;105.834;2024-01-11T20:21:44;16.63;;;11.60;;
22606;SDS011;11470;20.968;105.834;2024-01-11T20:26:49;17.25;;;12.70;;
22606;SDS011;11470;20.968;105.834;2024-01-11T20:31:54;17.63;;;12.83;;
22606;SDS011;11470;20.968;105.834;2024-01-11T20:36:59;16.20;;;11.93;;
22606;SDS011;11470;20.968;105.834;2024-01-11T20:42:04;18.67;;;13.15;;
22606;SDS011;11470;20.968;105.834;2024-01-11T20:47:09;21.27;;;15.68;;
22606;SDS011;11470;20.968;105.834;2024-01-11T20:52:14;21.17;;;14.93;;
22606;SDS011;11470;20.968;105.834;2024-01-11T20:57:19;19.67;;;13.82;;
22606;SDS011;11470;20.968;105.834;2024-01-11T21:02:24;14.85;;;11.25;;
22606;SDS011;11470;20.968;105.834;2024-01-11T21:07:29;18.20;;;13.60;;
22606;SDS011;11470;20.968;105.834;2024-01-11T21:12:34;17.10;;;11.20;;
22606;SDS011;11470;20.968;105.834;2024-01-11T21:17:39;19.50;;;14.20;;
22606;SDS011;11470;20.968;105.834;2024-01-11T21:22:44;18.17;;;11.80;;
22606;SDS011;11470;20.968;105.834;2024-01-11T21:27:49;16.98;;;12.43;;
22606;SDS011;11470;20.968;105.834;2024-01-11T21:32:55;14.57;;;9.00;;
22606;SDS011;11470;20.968;105.834;2024-01-11T21:38:01;16.33;;;11.43;;
22606;SDS011;11470;20.968;105.834;2024-01-11T21:43:06;17.55;;;13.43;;
22606;SDS011;11470;20.968;105.834;2024-01-11T21:48:12;16.60;;;12.23;;
22606;SDS011;11470;20.968;105.834;2024-01-11T21:53:17;16.07;;;11.57;;
22606;SDS011;11470;20.968;105.834;2024-01-11T21:58:22;15.43;;;10.50;;
22606;SDS011;11470;20.968;105.834;2024-01-11T22:08:34;17.58;;;12.55;;
22606;SDS011;11470;20.968;105.834;2024-01-11T22:13:41;17.45;;;11.88;;
22606;SDS011;11470;20.968;105.834;2024-01-11T22:18:46;14.00;;;10.40;;
22606;SDS011;11470;20.968;105.834;2024-01-11T22:23:52;15.70;;;10.97;;
22606;SDS011;11470;20.968;105.834;2024-01-11T22:28:57;16.48;;;11.18;;
22606;SDS011;11470;20.968;105.834;2024-01-11T22:34:03;17.38;;;11.13;;
22606;SDS011;11470;20.968;105.834;2024-01-11T22:39:08;12.87;;;9.83;;
22606;SDS011;11470;20.968;105.834;2024-01-11T22:44:13;12.55;;;9.88;;
22606;SDS011;11470;20.968;105.834;2024-01-11T22:49:18;14.57;;;10.13;;
22606;SDS011;11470;20.968;105.834;2024-01-11T22:54:23;13.32;;;9.68;;
22606;SDS011;11470;20.968;105.834;2024-01-11T22:59:28;14.20;;;10.23;;
22606;SDS011;11470;20.968;105.834;2024-01-11T23:04:34;14.68;;;11.55;;
22606;SDS011;11470;20.968;105.834;2024-01-11T23:09:39;12.85;;;9.23;;
22606;SDS011;11470;20.968;105.834;2024-01-11T23:14:44;17.35;;;11.35;;
22606;SDS011;11470;20.968;105.834;2024-01-11T23:19:49;14.27;;;10.93;;
22606;SDS011;11470;20.968;105.834;2024-01-11T23:24:55;14.67;;;10.50;;
22606;SDS011;11470;20.968;105.834;2024-01-11T23:30:01;17.48;;;12.13;;
22606;SDS011;11470;20.968;105.834;2024-01-11T23:35:06;20.75;;;14.32;;
22606;SDS011;11470;20.968;105.834;2024-01-11T23:40:12;16.50;;;12.27;;
22606;SDS011;11470;20.968;105.834;2024-01-11T23:45:17;13.82;;;9.68;;
22606;SDS011;11470;20.968;105.834;2024-01-11T23:50:24;13.95;;;10.07;;
22606;SDS011;11470;20.968;105.834;2024-01-11T23:55:29;16.83;;;11.00;;
